SPIN35 KPOB-KFFO
Flight info
| Callsign | SPIN35 |
|---|---|
| Flight time | 2h 21m |
| Altitude | 39000 |
| Route | LIVIA MOATS RDU TAPPA COLIN T224 CHOPS T320 WNSTN KACY/D0+30 LEEAH ENO DQO PENSY J110 ZANDR APE DANEI3 |
| Aircraft | B737/M-SDFGHIM1RWXYZ/LB1 |
Departure
| Time | 2026-05-08 22:10 |
|---|---|
| Airport | Pope Field (KPOB) |
Arrival
| Time | 2026-05-09 00:31 |
|---|---|
| Airport | Wright-Patterson Air Force Base (KFFO) |
| Time | Latitude | Longitude | Altitude | Speed | Heading |
|---|---|---|---|---|---|
| 2026-05-08 21:29 | 35.17435 | -79.01672 | 202 ft | 0 kts | 84° |
| 2026-05-08 22:04 | 35.17435 | -79.01671 | 202 ft | 1 kts | 84° |
| 2026-05-08 22:05 | 35.17435 | -79.01669 | 202 ft | 1 kts | 84° |
| 2026-05-08 22:05 | 35.17436 | -79.01662 | 202 ft | 2 kts | 84° |
| 2026-05-08 22:05 | 35.17438 | -79.01642 | 202 ft | 0 kts | 84° |
| 2026-05-08 22:05 | 35.17438 | -79.01641 | 202 ft | 1 kts | 84° |
| 2026-05-08 22:06 | 35.17439 | -79.01624 | 199 ft | 4 kts | 84° |
| 2026-05-08 22:06 | 35.17443 | -79.01574 | 207 ft | 8 kts | 84° |
| 2026-05-08 22:06 | 35.17482 | -79.01506 | 205 ft | 12 kts | 41° |
| 2026-05-08 22:06 | 35.17554 | -79.01429 | 207 ft | 16 kts | 41° |
| 2026-05-08 22:07 | 35.17596 | -79.01297 | 202 ft | 19 kts | 98° |
| 2026-05-08 22:07 | 35.17638 | -79.01144 | 208 ft | 22 kts | 41° |
| 2026-05-08 22:07 | 35.17758 | -79.01015 | 207 ft | 24 kts | 41° |
| 2026-05-08 22:07 | 35.17891 | -79.00873 | 208 ft | 25 kts | 41° |
| 2026-05-08 22:08 | 35.17915 | -79.00725 | 211 ft | 11 kts | 130° |
| 2026-05-08 22:08 | 35.17901 | -79.00704 | 209 ft | 0 kts | 131° |
| 2026-05-08 22:08 | 35.17900 | -79.00704 | 208 ft | 1 kts | 131° |
| 2026-05-08 22:09 | 35.17886 | -79.00684 | 207 ft | 8 kts | 131° |
| 2026-05-08 22:09 | 35.17828 | -79.00651 | 210 ft | 7 kts | 219° |
| 2026-05-08 22:09 | 35.17767 | -79.00720 | 206 ft | 17 kts | 221° |
| 2026-05-08 22:09 | 35.17519 | -79.00986 | 213 ft | 85 kts | 221° |
| 2026-05-08 22:10 | 35.16904 | -79.01653 | 204 ft | 148 kts | 221° |
| 2026-05-08 22:10 | 35.16057 | -79.02577 | 618 ft | 167 kts | 221° |
| 2026-05-08 22:10 | 35.15348 | -79.03713 | 1390 ft | 173 kts | 251° |
| 2026-05-08 22:10 | 35.15271 | -79.05190 | 2076 ft | 184 kts | 279° |
| 2026-05-08 22:11 | 35.15698 | -79.06727 | 2717 ft | 201 kts | 296° |
| 2026-05-08 22:11 | 35.16535 | -79.08179 | 3215 ft | 216 kts | 313° |
| 2026-05-08 22:11 | 35.17745 | -79.09417 | 3629 ft | 241 kts | 328° |
| 2026-05-08 22:11 | 35.19423 | -79.10085 | 4054 ft | 264 kts | 350° |
| 2026-05-08 22:12 | 35.21256 | -79.10482 | 4920 ft | 270 kts | 348° |
| 2026-05-08 22:12 | 35.23110 | -79.10932 | 5911 ft | 270 kts | 346° |
| 2026-05-08 22:12 | 35.24943 | -79.11405 | 6948 ft | 270 kts | 344° |
| 2026-05-08 22:12 | 35.26797 | -79.11897 | 7898 ft | 275 kts | 344° |
| 2026-05-08 22:13 | 35.28680 | -79.12383 | 8890 ft | 279 kts | 347° |
| 2026-05-08 22:13 | 35.30626 | -79.12422 | 9865 ft | 288 kts | 358° |
| 2026-05-08 22:13 | 35.32667 | -79.12216 | 10584 ft | 302 kts | 359° |
| 2026-05-08 22:13 | 35.34867 | -79.11977 | 10810 ft | 332 kts | 360° |
| 2026-05-08 22:14 | 35.37269 | -79.11720 | 11055 ft | 358 kts | 0° |
| 2026-05-08 22:14 | 35.39806 | -79.11454 | 11620 ft | 370 kts | 360° |
| 2026-05-08 22:14 | 35.42374 | -79.11193 | 12404 ft | 375 kts | 359° |
| 2026-05-08 22:14 | 35.44994 | -79.10933 | 13262 ft | 380 kts | 359° |
| 2026-05-08 22:15 | 35.47649 | -79.10677 | 14081 ft | 385 kts | 359° |
| 2026-05-08 22:15 | 35.50330 | -79.10421 | 14887 ft | 388 kts | 358° |
| 2026-05-08 22:15 | 35.53036 | -79.10164 | 15726 ft | 392 kts | 358° |
| 2026-05-08 22:15 | 35.55768 | -79.09905 | 16576 ft | 395 kts | 358° |
| 2026-05-08 22:16 | 35.57590 | -79.09733 | 17117 ft | 398 kts | 357° |
| 2026-05-08 22:16 | 35.60370 | -79.09247 | 17886 ft | 412 kts | 8° |
| 2026-05-08 22:16 | 35.63071 | -79.07857 | 18594 ft | 430 kts | 24° |
| 2026-05-08 22:16 | 35.66206 | -79.04685 | 19461 ft | 449 kts | 39° |
| 2026-05-08 22:17 | 35.67673 | -79.02860 | 19889 ft | 453 kts | 40° |
| 2026-05-08 22:17 | 35.69881 | -79.00031 | 20484 ft | 460 kts | 40° |
| 2026-05-08 22:17 | 35.72114 | -78.97163 | 21082 ft | 465 kts | 39° |
| 2026-05-08 22:17 | 35.74388 | -78.94283 | 21691 ft | 470 kts | 39° |
| 2026-05-08 22:18 | 35.76698 | -78.91399 | 22284 ft | 475 kts | 38° |
| 2026-05-08 22:18 | 35.79014 | -78.88531 | 22842 ft | 480 kts | 38° |
| 2026-05-08 22:18 | 35.81389 | -78.85599 | 23384 ft | 485 kts | 38° |
| 2026-05-08 22:18 | 35.83784 | -78.82641 | 23856 ft | 490 kts | 38° |
| 2026-05-08 22:19 | 35.86211 | -78.79639 | 24284 ft | 495 kts | 37° |
| 2026-05-08 22:19 | 35.88752 | -78.76793 | 24705 ft | 491 kts | 30° |
| 2026-05-08 22:19 | 35.91454 | -78.74289 | 25151 ft | 492 kts | 27° |
| 2026-05-08 22:19 | 35.94251 | -78.71832 | 25593 ft | 494 kts | 25° |
| 2026-05-08 22:20 | 35.97084 | -78.69385 | 26028 ft | 498 kts | 25° |
| 2026-05-08 22:20 | 35.99932 | -78.66918 | 26452 ft | 502 kts | 25° |
| 2026-05-08 22:20 | 36.02769 | -78.64434 | 26859 ft | 505 kts | 25° |
| 2026-05-08 22:20 | 36.05646 | -78.61889 | 27241 ft | 509 kts | 25° |
| 2026-05-08 22:21 | 36.08542 | -78.59304 | 27626 ft | 513 kts | 25° |
| 2026-05-08 22:21 | 36.11443 | -78.56699 | 28031 ft | 516 kts | 25° |
| 2026-05-08 22:21 | 36.14356 | -78.54070 | 28525 ft | 517 kts | 24° |
| 2026-05-08 22:21 | 36.17226 | -78.51473 | 29061 ft | 516 kts | 24° |
| 2026-05-08 22:22 | 36.20121 | -78.48852 | 29740 ft | 514 kts | 23° |
| 2026-05-08 22:22 | 36.23001 | -78.46240 | 30448 ft | 508 kts | 22° |
| 2026-05-08 22:22 | 36.25859 | -78.43649 | 30863 ft | 510 kts | 22° |
| 2026-05-08 22:22 | 36.27285 | -78.42362 | 31000 ft | 512 kts | 22° |
| 2026-05-08 22:23 | 36.28499 | -78.41268 | 31101 ft | 514 kts | 21° |
| 2026-05-08 22:23 | 36.31368 | -78.38682 | 31388 ft | 517 kts | 21° |
| 2026-05-08 22:23 | 36.34283 | -78.36049 | 31763 ft | 519 kts | 21° |
| 2026-05-08 22:23 | 36.37195 | -78.33410 | 32173 ft | 519 kts | 21° |
| 2026-05-08 22:24 | 36.40119 | -78.30754 | 32526 ft | 521 kts | 21° |
| 2026-05-08 22:24 | 36.43058 | -78.28084 | 32885 ft | 523 kts | 21° |
| 2026-05-08 22:24 | 36.45998 | -78.25410 | 33237 ft | 524 kts | 21° |
| 2026-05-08 22:24 | 36.48943 | -78.22729 | 33585 ft | 525 kts | 21° |
| 2026-05-08 22:25 | 36.51869 | -78.20063 | 33880 ft | 527 kts | 21° |
| 2026-05-08 22:25 | 36.54843 | -78.17351 | 34179 ft | 528 kts | 21° |
| 2026-05-08 22:25 | 36.57809 | -78.14642 | 34559 ft | 528 kts | 21° |
| 2026-05-08 22:25 | 36.60767 | -78.11932 | 34949 ft | 526 kts | 21° |
| 2026-05-08 22:26 | 36.63681 | -78.09261 | 35365 ft | 525 kts | 21° |
| 2026-05-08 22:26 | 36.66628 | -78.06559 | 35688 ft | 524 kts | 21° |
| 2026-05-08 22:26 | 36.69573 | -78.03859 | 36011 ft | 524 kts | 21° |
| 2026-05-08 22:26 | 36.72508 | -78.01169 | 36304 ft | 523 kts | 21° |
| 2026-05-08 22:27 | 36.75453 | -77.98466 | 36603 ft | 523 kts | 21° |
| 2026-05-08 22:27 | 36.78337 | -77.95816 | 36910 ft | 522 kts | 21° |
| 2026-05-08 22:27 | 36.81266 | -77.93119 | 37288 ft | 519 kts | 21° |
| 2026-05-08 22:27 | 36.84163 | -77.90446 | 37647 ft | 517 kts | 21° |
| 2026-05-08 22:28 | 36.87065 | -77.87771 | 37939 ft | 517 kts | 21° |
| 2026-05-08 22:28 | 36.89948 | -77.85111 | 38270 ft | 515 kts | 21° |
| 2026-05-08 22:28 | 36.92833 | -77.82447 | 38571 ft | 514 kts | 21° |
| 2026-05-08 22:28 | 36.95679 | -77.79819 | 38801 ft | 514 kts | 21° |
| 2026-05-08 22:29 | 36.98554 | -77.77161 | 38997 ft | 514 kts | 21° |
| 2026-05-08 22:29 | 37.04335 | -77.71813 | 39019 ft | 515 kts | 21° |
| 2026-05-08 22:30 | 37.10073 | -77.66476 | 39043 ft | 512 kts | 22° |
| 2026-05-08 22:30 | 37.15779 | -77.61162 | 39024 ft | 508 kts | 22° |
| 2026-05-08 22:31 | 37.21403 | -77.55919 | 39013 ft | 504 kts | 22° |
| 2026-05-08 22:31 | 37.27026 | -77.50670 | 39012 ft | 502 kts | 21° |
| 2026-05-08 22:32 | 37.32624 | -77.45437 | 39025 ft | 501 kts | 22° |
| 2026-05-08 22:32 | 37.38212 | -77.40203 | 39024 ft | 500 kts | 22° |
| 2026-05-08 22:33 | 37.43768 | -77.34987 | 39014 ft | 500 kts | 22° |
| 2026-05-08 22:33 | 37.49329 | -77.29757 | 39014 ft | 502 kts | 22° |
| 2026-05-08 22:34 | 37.54945 | -77.24467 | 39026 ft | 506 kts | 22° |
| 2026-05-08 22:34 | 37.60606 | -77.19120 | 39009 ft | 507 kts | 23° |
| 2026-05-08 22:35 | 37.66229 | -77.13794 | 39006 ft | 508 kts | 23° |
| 2026-05-08 22:35 | 37.71906 | -77.08408 | 39006 ft | 509 kts | 23° |
| 2026-05-08 22:36 | 37.77540 | -77.03054 | 39007 ft | 508 kts | 23° |
| 2026-05-08 22:36 | 37.83208 | -76.97656 | 39006 ft | 508 kts | 23° |
| 2026-05-08 22:37 | 37.88823 | -76.92299 | 39009 ft | 507 kts | 23° |
| 2026-05-08 22:37 | 37.94457 | -76.86916 | 39018 ft | 507 kts | 23° |
| 2026-05-08 22:38 | 37.99823 | -76.80879 | 39003 ft | 527 kts | 35° |
| 2026-05-08 22:38 | 38.04652 | -76.73898 | 38989 ft | 529 kts | 37° |
| 2026-05-08 22:39 | 38.09569 | -76.67004 | 38986 ft | 521 kts | 32° |
| 2026-05-08 22:39 | 38.12250 | -76.64012 | 38986 ft | 503 kts | 23° |
| 2026-05-08 22:39 | 38.15048 | -76.61356 | 39035 ft | 500 kts | 21° |
| 2026-05-08 22:40 | 38.20674 | -76.56156 | 39001 ft | 501 kts | 21° |
| 2026-05-08 22:40 | 38.26255 | -76.50870 | 38993 ft | 503 kts | 22° |
| 2026-05-08 22:41 | 38.31771 | -76.45545 | 38960 ft | 484 kts | 22° |
| 2026-05-08 22:41 | 38.36829 | -76.40120 | 38973 ft | 469 kts | 30° |
| 2026-05-08 22:41 | 38.39135 | -76.37244 | 38962 ft | 457 kts | 30° |
| 2026-05-08 22:42 | 38.41360 | -76.34477 | 38976 ft | 449 kts | 28° |
| 2026-05-08 22:42 | 38.45957 | -76.28931 | 38840 ft | 460 kts | 28° |
| 2026-05-08 22:42 | 38.48300 | -76.26112 | 38240 ft | 466 kts | 28° |
| 2026-05-08 22:43 | 38.50682 | -76.23240 | 37300 ft | 477 kts | 29° |
| 2026-05-08 22:43 | 38.53130 | -76.20280 | 36226 ft | 490 kts | 30° |
| 2026-05-08 22:43 | 38.55598 | -76.17276 | 35289 ft | 502 kts | 32° |
| 2026-05-08 22:43 | 38.58143 | -76.14169 | 34349 ft | 509 kts | 33° |
| 2026-05-08 22:44 | 38.60724 | -76.11013 | 33275 ft | 517 kts | 32° |
| 2026-05-08 22:44 | 38.63357 | -76.07883 | 32480 ft | 511 kts | 29° |
| 2026-05-08 22:44 | 38.66127 | -76.05154 | 31864 ft | 497 kts | 24° |
| 2026-05-08 22:44 | 38.68938 | -76.02633 | 31356 ft | 488 kts | 23° |
| 2026-05-08 22:45 | 38.71709 | -76.00147 | 30827 ft | 483 kts | 24° |
| 2026-05-08 22:45 | 38.74298 | -75.97325 | 30289 ft | 496 kts | 36° |
| 2026-05-08 22:45 | 38.76450 | -75.93887 | 29699 ft | 506 kts | 49° |
| 2026-05-08 22:45 | 38.78140 | -75.89892 | 29115 ft | 512 kts | 61° |
| 2026-05-08 22:46 | 38.79403 | -75.85623 | 28540 ft | 508 kts | 64° |
| 2026-05-08 22:46 | 38.80580 | -75.81365 | 27945 ft | 503 kts | 65° |
| 2026-05-08 22:46 | 38.81727 | -75.77194 | 27365 ft | 498 kts | 64° |
| 2026-05-08 22:46 | 38.82896 | -75.73031 | 26800 ft | 492 kts | 64° |
| 2026-05-08 22:47 | 38.84076 | -75.68921 | 26246 ft | 487 kts | 64° |
| 2026-05-08 22:47 | 38.85259 | -75.64857 | 25708 ft | 482 kts | 64° |
| 2026-05-08 22:47 | 38.86435 | -75.60853 | 25167 ft | 476 kts | 62° |
| 2026-05-08 22:47 | 38.87800 | -75.57035 | 24637 ft | 467 kts | 57° |
| 2026-05-08 22:48 | 38.89261 | -75.53405 | 24118 ft | 461 kts | 56° |
| 2026-05-08 22:48 | 38.90772 | -75.49789 | 23631 ft | 457 kts | 55° |
| 2026-05-08 22:48 | 38.92278 | -75.46205 | 23012 ft | 453 kts | 55° |
| 2026-05-08 22:48 | 38.93759 | -75.42648 | 22455 ft | 448 kts | 55° |
| 2026-05-08 22:49 | 38.95206 | -75.39126 | 21914 ft | 443 kts | 56° |
| 2026-05-08 22:49 | 38.98007 | -75.32221 | 20856 ft | 433 kts | 56° |
| 2026-05-08 22:49 | 38.99388 | -75.28791 | 20340 ft | 429 kts | 56° |
| 2026-05-08 22:50 | 39.00753 | -75.25393 | 19818 ft | 424 kts | 56° |
| 2026-05-08 22:50 | 39.02100 | -75.22035 | 19307 ft | 416 kts | 56° |
| 2026-05-08 22:50 | 39.03398 | -75.18781 | 18903 ft | 400 kts | 56° |
| 2026-05-08 22:50 | 39.04662 | -75.15619 | 18269 ft | 393 kts | 56° |
| 2026-05-08 22:51 | 39.05885 | -75.12558 | 17637 ft | 385 kts | 56° |
| 2026-05-08 22:51 | 39.07104 | -75.09512 | 16996 ft | 378 kts | 55° |
| 2026-05-08 22:51 | 39.08297 | -75.06525 | 16359 ft | 371 kts | 55° |
| 2026-05-08 22:51 | 39.09468 | -75.03593 | 15733 ft | 365 kts | 56° |
| 2026-05-08 22:52 | 39.10624 | -75.00697 | 15117 ft | 360 kts | 56° |
| 2026-05-08 22:52 | 39.11762 | -74.97842 | 14518 ft | 355 kts | 56° |
| 2026-05-08 22:52 | 39.12867 | -74.95068 | 13932 ft | 350 kts | 56° |
| 2026-05-08 22:52 | 39.13194 | -74.94247 | 13755 ft | 348 kts | 56° |
| 2026-05-08 22:53 | 39.13755 | -74.92835 | 13411 ft | 346 kts | 56° |
| 2026-05-08 22:53 | 39.14846 | -74.90091 | 12746 ft | 341 kts | 56° |
| 2026-05-08 22:53 | 39.15922 | -74.87384 | 12090 ft | 336 kts | 57° |
| 2026-05-08 22:53 | 39.16965 | -74.84754 | 11461 ft | 331 kts | 57° |
| 2026-05-08 22:54 | 39.18006 | -74.82128 | 10831 ft | 326 kts | 57° |
| 2026-05-08 22:54 | 39.19036 | -74.79528 | 10240 ft | 322 kts | 58° |
| 2026-05-08 22:54 | 39.20047 | -74.76974 | 9598 ft | 317 kts | 58° |
| 2026-05-08 22:54 | 39.21031 | -74.74485 | 8932 ft | 313 kts | 58° |
| 2026-05-08 22:55 | 39.22018 | -74.71988 | 8274 ft | 310 kts | 59° |
| 2026-05-08 22:55 | 39.22992 | -74.69519 | 7636 ft | 307 kts | 59° |
| 2026-05-08 22:55 | 39.23958 | -74.67074 | 7014 ft | 304 kts | 60° |
| 2026-05-08 22:55 | 39.24918 | -74.64640 | 6391 ft | 302 kts | 60° |
| 2026-05-08 22:56 | 39.25865 | -74.62232 | 5757 ft | 300 kts | 60° |
| 2026-05-08 22:56 | 39.26794 | -74.59870 | 5123 ft | 298 kts | 60° |
| 2026-05-08 22:56 | 39.27728 | -74.57492 | 4495 ft | 296 kts | 60° |
| 2026-05-08 22:56 | 39.28656 | -74.55128 | 3933 ft | 291 kts | 61° |
| 2026-05-08 22:57 | 39.29556 | -74.52834 | 3537 ft | 281 kts | 61° |
| 2026-05-08 22:57 | 39.30191 | -74.50493 | 3124 ft | 275 kts | 84° |
| 2026-05-08 22:57 | 39.29941 | -74.48151 | 3018 ft | 253 kts | 111° |
| 2026-05-08 22:57 | 39.29393 | -74.46086 | 2984 ft | 232 kts | 109° |
| 2026-05-08 22:58 | 39.28935 | -74.44199 | 2981 ft | 217 kts | 109° |
| 2026-05-08 22:58 | 39.28472 | -74.42275 | 3056 ft | 241 kts | 109° |
| 2026-05-08 22:58 | 39.27952 | -74.40074 | 3050 ft | 262 kts | 104° |
| 2026-05-08 22:58 | 39.27965 | -74.37746 | 3013 ft | 260 kts | 72° |
| 2026-05-08 22:59 | 39.28834 | -74.35771 | 3010 ft | 250 kts | 41° |
| 2026-05-08 22:59 | 39.30270 | -74.34602 | 3018 ft | 245 kts | 12° |
| 2026-05-08 22:59 | 39.31931 | -74.34492 | 3042 ft | 235 kts | 349° |
| 2026-05-08 22:59 | 39.33516 | -74.34685 | 3002 ft | 227 kts | 349° |
| 2026-05-08 23:00 | 39.35063 | -74.34874 | 2981 ft | 219 kts | 347° |
| 2026-05-08 23:00 | 39.36381 | -74.35534 | 3000 ft | 189 kts | 308° |
| 2026-05-08 23:00 | 39.37078 | -74.36848 | 3000 ft | 169 kts | 301° |
| 2026-05-08 23:00 | 39.37728 | -74.38024 | 2983 ft | 153 kts | 298° |
| 2026-05-08 23:01 | 39.38280 | -74.39257 | 2911 ft | 166 kts | 295° |
| 2026-05-08 23:01 | 39.38823 | -74.40561 | 2701 ft | 166 kts | 295° |
| 2026-05-08 23:01 | 39.39369 | -74.41890 | 2474 ft | 166 kts | 295° |
| 2026-05-08 23:01 | 39.39886 | -74.43152 | 2266 ft | 152 kts | 294° |
| 2026-05-08 23:02 | 39.40362 | -74.44315 | 2057 ft | 142 kts | 294° |
| 2026-05-08 23:02 | 39.40824 | -74.45445 | 1880 ft | 142 kts | 293° |
| 2026-05-08 23:02 | 39.41283 | -74.46570 | 1707 ft | 143 kts | 293° |
| 2026-05-08 23:02 | 39.41739 | -74.47682 | 1489 ft | 138 kts | 292° |
| 2026-05-08 23:03 | 39.42033 | -74.48398 | 1385 ft | 136 kts | 293° |
| 2026-05-08 23:03 | 39.42478 | -74.49486 | 1201 ft | 137 kts | 291° |
| 2026-05-08 23:03 | 39.42926 | -74.50583 | 1018 ft | 140 kts | 292° |
| 2026-05-08 23:03 | 39.43388 | -74.51711 | 842 ft | 140 kts | 292° |
| 2026-05-08 23:04 | 39.43848 | -74.52766 | 640 ft | 133 kts | 294° |
| 2026-05-08 23:04 | 39.44311 | -74.53891 | 495 ft | 147 kts | 292° |
| 2026-05-08 23:04 | 39.44788 | -74.55122 | 475 ft | 167 kts | 292° |
| 2026-05-08 23:04 | 39.45356 | -74.56607 | 1050 ft | 192 kts | 294° |
| 2026-05-08 23:05 | 39.45949 | -74.58128 | 1738 ft | 195 kts | 296° |
| 2026-05-08 23:05 | 39.46565 | -74.59732 | 2461 ft | 191 kts | 289° |
| 2026-05-08 23:05 | 39.46960 | -74.61409 | 2968 ft | 212 kts | 283° |
| 2026-05-08 23:05 | 39.47328 | -74.63321 | 2987 ft | 221 kts | 283° |
| 2026-05-08 23:06 | 39.47703 | -74.65293 | 3230 ft | 235 kts | 283° |
| 2026-05-08 23:06 | 39.48117 | -74.67411 | 4092 ft | 244 kts | 283° |
| 2026-05-08 23:06 | 39.48541 | -74.69528 | 5460 ft | 241 kts | 283° |
| 2026-05-08 23:06 | 39.48968 | -74.71620 | 6714 ft | 244 kts | 283° |
| 2026-05-08 23:07 | 39.49411 | -74.73762 | 7878 ft | 248 kts | 283° |
| 2026-05-08 23:07 | 39.49868 | -74.75939 | 9060 ft | 251 kts | 283° |
| 2026-05-08 23:07 | 39.50332 | -74.78138 | 10191 ft | 255 kts | 283° |
| 2026-05-08 23:07 | 39.50814 | -74.80413 | 11068 ft | 268 kts | 285° |
| 2026-05-08 23:08 | 39.51324 | -74.82803 | 11836 ft | 283 kts | 286° |
| 2026-05-08 23:08 | 39.51857 | -74.85293 | 12575 ft | 297 kts | 287° |
| 2026-05-08 23:08 | 39.52426 | -74.87939 | 13303 ft | 312 kts | 287° |
| 2026-05-08 23:08 | 39.53022 | -74.90712 | 13976 ft | 326 kts | 288° |
| 2026-05-08 23:09 | 39.53643 | -74.93604 | 14607 ft | 338 kts | 287° |
| 2026-05-08 23:09 | 39.54282 | -74.96585 | 15303 ft | 347 kts | 287° |
| 2026-05-08 23:09 | 39.54933 | -74.99633 | 16058 ft | 353 kts | 286° |
| 2026-05-08 23:09 | 39.55595 | -75.02732 | 16823 ft | 358 kts | 286° |
| 2026-05-08 23:10 | 39.56264 | -75.05869 | 17598 ft | 363 kts | 285° |
| 2026-05-08 23:10 | 39.56940 | -75.09048 | 18305 ft | 368 kts | 285° |
| 2026-05-08 23:10 | 39.57624 | -75.12262 | 18993 ft | 371 kts | 285° |
| 2026-05-08 23:10 | 39.58302 | -75.15454 | 19702 ft | 373 kts | 285° |
| 2026-05-08 23:11 | 39.58991 | -75.18699 | 20429 ft | 374 kts | 285° |
| 2026-05-08 23:11 | 39.59682 | -75.21960 | 21129 ft | 375 kts | 285° |
| 2026-05-08 23:11 | 39.60374 | -75.25230 | 21788 ft | 377 kts | 285° |
| 2026-05-08 23:11 | 39.61070 | -75.28523 | 22420 ft | 380 kts | 285° |
| 2026-05-08 23:12 | 39.61771 | -75.31846 | 23006 ft | 383 kts | 285° |
| 2026-05-08 23:12 | 39.62476 | -75.35195 | 23567 ft | 385 kts | 285° |
| 2026-05-08 23:12 | 39.63182 | -75.38554 | 24024 ft | 388 kts | 285° |
| 2026-05-08 23:12 | 39.63884 | -75.41897 | 24499 ft | 389 kts | 285° |
| 2026-05-08 23:13 | 39.64595 | -75.45288 | 25063 ft | 388 kts | 285° |
| 2026-05-08 23:13 | 39.65300 | -75.48651 | 25780 ft | 383 kts | 284° |
| 2026-05-08 23:13 | 39.65994 | -75.51972 | 26602 ft | 376 kts | 284° |
| 2026-05-08 23:13 | 39.66672 | -75.55220 | 27413 ft | 371 kts | 284° |
| 2026-05-08 23:14 | 39.67338 | -75.58399 | 28151 ft | 367 kts | 285° |
| 2026-05-08 23:14 | 39.68173 | -75.61524 | 28872 ft | 365 kts | 290° |
| 2026-05-08 23:14 | 39.69284 | -75.64483 | 29677 ft | 362 kts | 294° |
| 2026-05-08 23:14 | 39.70448 | -75.67355 | 30369 ft | 358 kts | 294° |
| 2026-05-08 23:15 | 39.71607 | -75.70212 | 30939 ft | 355 kts | 293° |
| 2026-05-08 23:15 | 39.72751 | -75.73042 | 31508 ft | 352 kts | 293° |
| 2026-05-08 23:15 | 39.73881 | -75.75850 | 32092 ft | 349 kts | 293° |
| 2026-05-08 23:15 | 39.74984 | -75.78599 | 32666 ft | 346 kts | 292° |
| 2026-05-08 23:16 | 39.76090 | -75.81363 | 33246 ft | 342 kts | 292° |
| 2026-05-08 23:16 | 39.77178 | -75.84088 | 33850 ft | 338 kts | 292° |
| 2026-05-08 23:16 | 39.78256 | -75.86791 | 34267 ft | 336 kts | 292° |
| 2026-05-08 23:16 | 39.79336 | -75.89506 | 34522 ft | 338 kts | 292° |
| 2026-05-08 23:17 | 39.80418 | -75.92231 | 34799 ft | 340 kts | 292° |
| 2026-05-08 23:17 | 39.81506 | -75.94968 | 35142 ft | 340 kts | 292° |
| 2026-05-08 23:17 | 39.82590 | -75.97699 | 35466 ft | 340 kts | 291° |
| 2026-05-08 23:17 | 39.83662 | -76.00401 | 35757 ft | 340 kts | 291° |
| 2026-05-08 23:18 | 39.84751 | -76.03149 | 36041 ft | 341 kts | 291° |
| 2026-05-08 23:18 | 39.85843 | -76.05903 | 36349 ft | 341 kts | 291° |
| 2026-05-08 23:18 | 39.86921 | -76.08627 | 36633 ft | 342 kts | 291° |
| 2026-05-08 23:18 | 39.88011 | -76.11383 | 36916 ft | 342 kts | 291° |
| 2026-05-08 23:19 | 39.89092 | -76.14146 | 37191 ft | 341 kts | 289° |
| 2026-05-08 23:19 | 39.89910 | -76.17015 | 37545 ft | 336 kts | 283° |
| 2026-05-08 23:19 | 39.90521 | -76.19946 | 37859 ft | 334 kts | 280° |
| 2026-05-08 23:19 | 39.90929 | -76.22940 | 37898 ft | 337 kts | 274° |
| 2026-05-08 23:20 | 39.91215 | -76.29032 | 37940 ft | 336 kts | 272° |
| 2026-05-08 23:20 | 39.91450 | -76.35036 | 37940 ft | 332 kts | 272° |
| 2026-05-08 23:21 | 39.91691 | -76.41041 | 37930 ft | 330 kts | 273° |
| 2026-05-08 23:21 | 39.91935 | -76.47004 | 37938 ft | 328 kts | 272° |
| 2026-05-08 23:22 | 39.92176 | -76.52905 | 37948 ft | 328 kts | 272° |
| 2026-05-08 23:22 | 39.92345 | -76.57095 | 37948 ft | 327 kts | 272° |
| 2026-05-08 23:23 | 39.92499 | -76.60928 | 37939 ft | 327 kts | 272° |
| 2026-05-08 23:23 | 39.92736 | -76.66865 | 37944 ft | 328 kts | 272° |
| 2026-05-08 23:24 | 39.92967 | -76.72770 | 37943 ft | 329 kts | 272° |
| 2026-05-08 23:24 | 39.93200 | -76.78755 | 37941 ft | 330 kts | 272° |
| 2026-05-08 23:25 | 39.93431 | -76.84751 | 37944 ft | 332 kts | 272° |
| 2026-05-08 23:25 | 39.93658 | -76.90723 | 37945 ft | 332 kts | 272° |
| 2026-05-08 23:26 | 39.93884 | -76.96765 | 37949 ft | 333 kts | 272° |
| 2026-05-08 23:26 | 39.94107 | -77.02761 | 37947 ft | 333 kts | 272° |
| 2026-05-08 23:27 | 39.94327 | -77.08795 | 37944 ft | 332 kts | 272° |
| 2026-05-08 23:27 | 39.94542 | -77.14823 | 37952 ft | 332 kts | 272° |
| 2026-05-08 23:28 | 39.94752 | -77.20805 | 37946 ft | 332 kts | 272° |
| 2026-05-08 23:28 | 39.94961 | -77.26817 | 37949 ft | 331 kts | 272° |
| 2026-05-08 23:29 | 39.95165 | -77.32814 | 37947 ft | 330 kts | 272° |
| 2026-05-08 23:29 | 39.95365 | -77.38759 | 37951 ft | 329 kts | 272° |
| 2026-05-08 23:30 | 39.95563 | -77.44735 | 37952 ft | 329 kts | 272° |
| 2026-05-08 23:30 | 39.95755 | -77.50714 | 37949 ft | 330 kts | 272° |
| 2026-05-08 23:31 | 39.95943 | -77.56671 | 37949 ft | 330 kts | 272° |
| 2026-05-08 23:31 | 39.96129 | -77.62661 | 37961 ft | 330 kts | 272° |
| 2026-05-08 23:32 | 39.96312 | -77.68623 | 37950 ft | 329 kts | 272° |
| 2026-05-08 23:32 | 39.96490 | -77.74541 | 37951 ft | 328 kts | 272° |
| 2026-05-08 23:33 | 39.96667 | -77.80489 | 37952 ft | 327 kts | 272° |
| 2026-05-08 23:33 | 39.96839 | -77.86429 | 37959 ft | 327 kts | 272° |
| 2026-05-08 23:34 | 39.97018 | -77.92334 | 37954 ft | 327 kts | 272° |
| 2026-05-08 23:34 | 39.97195 | -77.98279 | 37965 ft | 327 kts | 271° |
| 2026-05-08 23:35 | 39.97359 | -78.04213 | 37971 ft | 327 kts | 271° |
| 2026-05-08 23:35 | 39.97519 | -78.10107 | 37952 ft | 327 kts | 271° |
| 2026-05-08 23:36 | 39.97678 | -78.16033 | 37956 ft | 326 kts | 271° |
| 2026-05-08 23:36 | 39.97833 | -78.21949 | 37950 ft | 326 kts | 271° |
| 2026-05-08 23:37 | 39.97985 | -78.27851 | 37949 ft | 327 kts | 271° |
| 2026-05-08 23:37 | 39.98136 | -78.33803 | 37945 ft | 328 kts | 271° |
| 2026-05-08 23:38 | 39.98284 | -78.39736 | 37952 ft | 328 kts | 271° |
| 2026-05-08 23:38 | 39.98428 | -78.45677 | 37945 ft | 329 kts | 271° |
| 2026-05-08 23:39 | 39.98570 | -78.51642 | 37954 ft | 328 kts | 271° |
| 2026-05-08 23:39 | 39.98709 | -78.57609 | 37960 ft | 327 kts | 271° |
| 2026-05-08 23:40 | 39.98844 | -78.63533 | 37938 ft | 327 kts | 271° |
| 2026-05-08 23:40 | 39.98975 | -78.69414 | 37947 ft | 326 kts | 271° |
| 2026-05-08 23:41 | 39.99104 | -78.75346 | 37959 ft | 326 kts | 271° |
| 2026-05-08 23:41 | 39.99229 | -78.81250 | 37943 ft | 327 kts | 271° |
| 2026-05-08 23:42 | 39.99353 | -78.87189 | 37954 ft | 328 kts | 271° |
| 2026-05-08 23:42 | 39.99413 | -78.90171 | 37764 ft | 331 kts | 271° |
| 2026-05-08 23:42 | 39.99474 | -78.93176 | 37502 ft | 329 kts | 271° |
| 2026-05-08 23:43 | 39.99533 | -78.96158 | 37228 ft | 327 kts | 271° |
| 2026-05-08 23:43 | 39.99590 | -78.99095 | 36980 ft | 327 kts | 271° |
| 2026-05-08 23:43 | 39.99648 | -79.02074 | 36716 ft | 328 kts | 271° |
| 2026-05-08 23:43 | 39.99705 | -79.05060 | 36463 ft | 329 kts | 271° |
| 2026-05-08 23:44 | 39.99761 | -79.08021 | 36205 ft | 325 kts | 271° |
| 2026-05-08 23:44 | 39.99816 | -79.10971 | 35958 ft | 326 kts | 271° |
| 2026-05-08 23:44 | 39.99870 | -79.13939 | 35708 ft | 328 kts | 271° |
| 2026-05-08 23:44 | 39.99923 | -79.16879 | 35475 ft | 329 kts | 271° |
| 2026-05-08 23:45 | 39.99976 | -79.19868 | 35230 ft | 330 kts | 271° |
| 2026-05-08 23:45 | 40.00029 | -79.22869 | 34982 ft | 331 kts | 271° |
| 2026-05-08 23:45 | 40.00081 | -79.25880 | 34746 ft | 331 kts | 271° |
| 2026-05-08 23:45 | 40.00132 | -79.28890 | 34513 ft | 332 kts | 271° |
| 2026-05-08 23:46 | 40.00183 | -79.31907 | 34274 ft | 332 kts | 271° |
| 2026-05-08 23:46 | 40.00234 | -79.34923 | 34041 ft | 332 kts | 271° |
| 2026-05-08 23:46 | 40.00283 | -79.37936 | 33780 ft | 332 kts | 271° |
| 2026-05-08 23:46 | 40.00331 | -79.40919 | 33512 ft | 332 kts | 271° |
| 2026-05-08 23:47 | 40.00378 | -79.43937 | 33238 ft | 333 kts | 271° |
| 2026-05-08 23:47 | 40.00424 | -79.46963 | 32975 ft | 334 kts | 271° |
| 2026-05-08 23:47 | 40.00470 | -79.50010 | 32706 ft | 337 kts | 271° |
| 2026-05-08 23:47 | 40.00516 | -79.53089 | 32448 ft | 340 kts | 271° |
| 2026-05-08 23:48 | 40.00560 | -79.56194 | 32194 ft | 344 kts | 271° |
| 2026-05-08 23:48 | 40.00605 | -79.59302 | 31981 ft | 349 kts | 271° |
| 2026-05-08 23:48 | 40.00693 | -79.65687 | 31951 ft | 352 kts | 271° |
| 2026-05-08 23:49 | 40.00765 | -79.70992 | 31942 ft | 351 kts | 271° |
| 2026-05-08 23:49 | 40.00847 | -79.77358 | 31938 ft | 350 kts | 271° |
| 2026-05-08 23:50 | 40.00926 | -79.83729 | 31937 ft | 350 kts | 270° |
| 2026-05-08 23:50 | 40.01001 | -79.90046 | 31940 ft | 350 kts | 270° |
| 2026-05-08 23:51 | 40.01073 | -79.96405 | 31938 ft | 351 kts | 270° |
| 2026-05-08 23:51 | 40.01141 | -80.02773 | 31933 ft | 351 kts | 270° |
| 2026-05-08 23:52 | 40.01206 | -80.09148 | 31931 ft | 351 kts | 270° |
| 2026-05-08 23:52 | 40.01253 | -80.13983 | 31930 ft | 351 kts | 270° |
| 2026-05-08 23:53 | 40.01290 | -80.17833 | 31930 ft | 351 kts | 270° |
| 2026-05-08 23:53 | 40.01347 | -80.24207 | 31931 ft | 351 kts | 270° |
| 2026-05-08 23:54 | 40.01400 | -80.30579 | 31936 ft | 351 kts | 270° |
| 2026-05-08 23:55 | 40.01472 | -80.40112 | 31925 ft | 352 kts | 270° |
| 2026-05-08 23:55 | 40.01519 | -80.46500 | 31925 ft | 352 kts | 270° |
| 2026-05-08 23:56 | 40.01563 | -80.52896 | 31919 ft | 352 kts | 270° |
| 2026-05-08 23:56 | 40.01599 | -80.59251 | 31929 ft | 351 kts | 270° |
| 2026-05-08 23:57 | 40.01632 | -80.65633 | 31919 ft | 352 kts | 270° |
| 2026-05-08 23:57 | 40.01663 | -80.72012 | 31918 ft | 351 kts | 270° |
| 2026-05-08 23:58 | 40.01690 | -80.78362 | 31915 ft | 352 kts | 270° |
| 2026-05-08 23:58 | 40.01687 | -80.84763 | 31914 ft | 352 kts | 269° |
| 2026-05-08 23:59 | 40.01596 | -80.91161 | 31919 ft | 352 kts | 269° |
| 2026-05-08 23:59 | 40.01498 | -80.97513 | 31916 ft | 351 kts | 269° |
| 2026-05-09 00:00 | 40.01404 | -81.03881 | 31911 ft | 351 kts | 269° |
| 2026-05-09 00:00 | 40.01311 | -81.10192 | 31917 ft | 350 kts | 269° |
| 2026-05-09 00:01 | 40.01216 | -81.16543 | 31918 ft | 350 kts | 269° |
| 2026-05-09 00:01 | 40.01116 | -81.22869 | 31918 ft | 350 kts | 269° |
| 2026-05-09 00:02 | 40.01000 | -81.29231 | 31932 ft | 350 kts | 269° |
| 2026-05-09 00:02 | 40.00876 | -81.35593 | 31915 ft | 350 kts | 269° |
| 2026-05-09 00:03 | 40.00753 | -81.41912 | 31910 ft | 350 kts | 269° |
| 2026-05-09 00:03 | 40.00625 | -81.48252 | 31912 ft | 349 kts | 268° |
| 2026-05-09 00:04 | 40.00709 | -81.54581 | 31907 ft | 349 kts | 275° |
| 2026-05-09 00:04 | 40.01552 | -81.60793 | 31928 ft | 350 kts | 278° |
| 2026-05-09 00:05 | 40.02460 | -81.67042 | 31936 ft | 350 kts | 278° |
| 2026-05-09 00:05 | 40.03357 | -81.73307 | 31928 ft | 350 kts | 278° |
| 2026-05-09 00:06 | 40.04238 | -81.79527 | 31916 ft | 351 kts | 278° |
| 2026-05-09 00:06 | 40.05124 | -81.85822 | 31918 ft | 352 kts | 278° |
| 2026-05-09 00:07 | 40.06006 | -81.92128 | 31912 ft | 353 kts | 278° |
| 2026-05-09 00:07 | 40.06878 | -81.98391 | 31915 ft | 353 kts | 278° |
| 2026-05-09 00:08 | 40.07753 | -82.04706 | 31919 ft | 353 kts | 278° |
| 2026-05-09 00:08 | 40.08628 | -82.11048 | 31900 ft | 354 kts | 278° |
| 2026-05-09 00:09 | 40.09493 | -82.17338 | 31906 ft | 354 kts | 278° |
| 2026-05-09 00:09 | 40.10361 | -82.23680 | 31910 ft | 354 kts | 278° |
| 2026-05-09 00:10 | 40.11226 | -82.30030 | 31907 ft | 354 kts | 278° |
| 2026-05-09 00:10 | 40.12087 | -82.36370 | 31909 ft | 354 kts | 278° |
| 2026-05-09 00:10 | 40.12511 | -82.39508 | 31546 ft | 357 kts | 278° |
| 2026-05-09 00:11 | 40.12944 | -82.42709 | 31018 ft | 351 kts | 278° |
| 2026-05-09 00:11 | 40.13358 | -82.45779 | 30476 ft | 345 kts | 278° |
| 2026-05-09 00:11 | 40.13772 | -82.48858 | 29871 ft | 342 kts | 279° |
| 2026-05-09 00:11 | 40.14182 | -82.51905 | 29170 ft | 338 kts | 279° |
| 2026-05-09 00:12 | 40.14585 | -82.54920 | 28532 ft | 334 kts | 279° |
| 2026-05-09 00:12 | 40.14981 | -82.57891 | 27913 ft | 330 kts | 278° |
| 2026-05-09 00:12 | 40.15257 | -82.60862 | 27049 ft | 331 kts | 275° |
| 2026-05-09 00:12 | 40.15430 | -82.63886 | 26278 ft | 332 kts | 274° |
| 2026-05-09 00:13 | 40.15578 | -82.66901 | 25601 ft | 331 kts | 274° |
| 2026-05-09 00:13 | 40.15721 | -82.69886 | 25016 ft | 327 kts | 274° |
| 2026-05-09 00:13 | 40.15864 | -82.72805 | 24443 ft | 324 kts | 274° |
| 2026-05-09 00:13 | 40.16009 | -82.75731 | 23876 ft | 322 kts | 274° |
| 2026-05-09 00:14 | 40.16157 | -82.78644 | 23275 ft | 319 kts | 274° |
| 2026-05-09 00:14 | 40.16304 | -82.81536 | 22633 ft | 317 kts | 274° |
| 2026-05-09 00:14 | 40.16450 | -82.84396 | 22065 ft | 313 kts | 274° |
| 2026-05-09 00:14 | 40.16594 | -82.87223 | 21501 ft | 310 kts | 274° |
| 2026-05-09 00:15 | 40.16735 | -82.89988 | 20939 ft | 307 kts | 274° |
| 2026-05-09 00:15 | 40.16876 | -82.92770 | 20395 ft | 305 kts | 274° |
| 2026-05-09 00:15 | 40.17016 | -82.95531 | 19843 ft | 303 kts | 274° |
| 2026-05-09 00:15 | 40.17154 | -82.98285 | 19299 ft | 302 kts | 274° |
| 2026-05-09 00:16 | 40.17291 | -83.01023 | 18762 ft | 301 kts | 274° |
| 2026-05-09 00:16 | 40.17428 | -83.03769 | 18235 ft | 305 kts | 274° |
| 2026-05-09 00:16 | 40.17566 | -83.06536 | 17632 ft | 311 kts | 274° |
| 2026-05-09 00:16 | 40.17706 | -83.09366 | 17117 ft | 314 kts | 274° |
| 2026-05-09 00:17 | 40.17846 | -83.12222 | 16554 ft | 313 kts | 274° |
| 2026-05-09 00:17 | 40.17985 | -83.15056 | 15972 ft | 310 kts | 274° |
| 2026-05-09 00:17 | 40.18122 | -83.17867 | 15411 ft | 307 kts | 274° |
| 2026-05-09 00:17 | 40.18257 | -83.20648 | 14853 ft | 305 kts | 274° |
| 2026-05-09 00:18 | 40.18390 | -83.23411 | 14327 ft | 303 kts | 274° |
| 2026-05-09 00:18 | 40.18522 | -83.26164 | 13943 ft | 307 kts | 274° |
| 2026-05-09 00:18 | 40.18653 | -83.28921 | 13506 ft | 305 kts | 273° |
| 2026-05-09 00:18 | 40.18783 | -83.31654 | 13110 ft | 296 kts | 273° |
| 2026-05-09 00:19 | 40.18908 | -83.34301 | 12758 ft | 286 kts | 273° |
| 2026-05-09 00:19 | 40.19029 | -83.36858 | 12479 ft | 276 kts | 273° |
| 2026-05-09 00:19 | 40.19145 | -83.39329 | 12210 ft | 267 kts | 272° |
| 2026-05-09 00:19 | 40.19255 | -83.41693 | 11950 ft | 260 kts | 272° |
| 2026-05-09 00:20 | 40.19364 | -83.44045 | 11694 ft | 258 kts | 272° |
| 2026-05-09 00:20 | 40.19472 | -83.46390 | 11446 ft | 257 kts | 272° |
| 2026-05-09 00:20 | 40.19579 | -83.48702 | 11199 ft | 257 kts | 272° |
| 2026-05-09 00:20 | 40.19685 | -83.51033 | 11071 ft | 255 kts | 272° |
| 2026-05-09 00:21 | 40.19791 | -83.53356 | 11030 ft | 256 kts | 272° |
| 2026-05-09 00:21 | 40.19898 | -83.55686 | 11021 ft | 255 kts | 272° |
| 2026-05-09 00:21 | 40.20003 | -83.58008 | 11017 ft | 255 kts | 272° |
| 2026-05-09 00:21 | 40.20107 | -83.60328 | 11020 ft | 256 kts | 272° |
| 2026-05-09 00:22 | 40.20121 | -83.62629 | 11009 ft | 256 kts | 260° |
| 2026-05-09 00:22 | 40.19410 | -83.64763 | 10900 ft | 263 kts | 236° |
| 2026-05-09 00:22 | 40.17977 | -83.66330 | 10587 ft | 273 kts | 217° |
| 2026-05-09 00:22 | 40.17443 | -83.66732 | 10483 ft | 270 kts | 215° |
| 2026-05-09 00:23 | 40.16539 | -83.67371 | 10162 ft | 268 kts | 214° |
| 2026-05-09 00:23 | 40.14911 | -83.68475 | 9916 ft | 252 kts | 213° |
| 2026-05-09 00:23 | 40.13345 | -83.69519 | 9310 ft | 250 kts | 213° |
| 2026-05-09 00:23 | 40.11819 | -83.70537 | 8857 ft | 243 kts | 213° |
| 2026-05-09 00:24 | 40.10326 | -83.71539 | 8499 ft | 240 kts | 213° |
| 2026-05-09 00:24 | 40.08847 | -83.72546 | 8140 ft | 239 kts | 213° |
| 2026-05-09 00:24 | 40.07393 | -83.73559 | 7778 ft | 239 kts | 213° |
| 2026-05-09 00:24 | 40.05939 | -83.74595 | 7432 ft | 238 kts | 213° |
| 2026-05-09 00:25 | 40.04490 | -83.75645 | 7083 ft | 238 kts | 213° |
| 2026-05-09 00:25 | 40.03050 | -83.76709 | 6736 ft | 237 kts | 213° |
| 2026-05-09 00:25 | 40.01627 | -83.77774 | 6319 ft | 233 kts | 213° |
| 2026-05-09 00:25 | 40.00321 | -83.78963 | 5812 ft | 227 kts | 227° |
| 2026-05-09 00:26 | 39.99270 | -83.80479 | 5337 ft | 222 kts | 228° |
| 2026-05-09 00:26 | 39.98212 | -83.81930 | 4917 ft | 216 kts | 225° |
| 2026-05-09 00:26 | 39.97180 | -83.83244 | 4755 ft | 209 kts | 227° |
| 2026-05-09 00:26 | 39.96193 | -83.84617 | 4505 ft | 207 kts | 229° |
| 2026-05-09 00:27 | 39.95235 | -83.86021 | 4240 ft | 209 kts | 229° |
| 2026-05-09 00:27 | 39.94276 | -83.87446 | 3958 ft | 207 kts | 230° |
| 2026-05-09 00:27 | 39.93363 | -83.88807 | 3698 ft | 195 kts | 230° |
| 2026-05-09 00:27 | 39.92486 | -83.90115 | 3430 ft | 188 kts | 230° |
| 2026-05-09 00:28 | 39.91642 | -83.91373 | 3200 ft | 183 kts | 230° |
| 2026-05-09 00:28 | 39.90799 | -83.92631 | 2933 ft | 183 kts | 230° |
| 2026-05-09 00:28 | 39.89996 | -83.93827 | 2699 ft | 165 kts | 231° |
| 2026-05-09 00:28 | 39.89279 | -83.94895 | 2480 ft | 149 kts | 231° |
| 2026-05-09 00:29 | 39.88624 | -83.95873 | 2321 ft | 142 kts | 231° |
| 2026-05-09 00:29 | 39.87994 | -83.96814 | 2112 ft | 133 kts | 232° |
| 2026-05-09 00:29 | 39.87408 | -83.97688 | 1933 ft | 127 kts | 232° |
| 2026-05-09 00:29 | 39.86815 | -83.98574 | 1788 ft | 134 kts | 232° |
| 2026-05-09 00:30 | 39.86192 | -83.99508 | 1682 ft | 139 kts | 230° |
| 2026-05-09 00:30 | 39.85542 | -84.00482 | 1507 ft | 146 kts | 230° |
| 2026-05-09 00:30 | 39.84858 | -84.01496 | 1291 ft | 153 kts | 230° |
| 2026-05-09 00:30 | 39.84168 | -84.02533 | 996 ft | 150 kts | 229° |
| 2026-05-09 00:31 | 39.83503 | -84.03520 | 824 ft | 140 kts | 229° |
| 2026-05-09 00:31 | 39.82924 | -84.04384 | 810 ft | 111 kts | 229° |
| 2026-05-09 00:31 | 39.82496 | -84.05020 | 812 ft | 76 kts | 229° |
| 2026-05-09 00:31 | 39.82219 | -84.05390 | 811 ft | 26 kts | 184° |
| 2026-05-09 00:32 | 39.82070 | -84.05290 | 810 ft | 24 kts | 126° |
| 2026-05-09 00:32 | 39.81978 | -84.05118 | 813 ft | 23 kts | 126° |
| 2026-05-09 00:32 | 39.81886 | -84.04953 | 810 ft | 22 kts | 124° |
| 2026-05-09 00:32 | 39.81802 | -84.04789 | 809 ft | 21 kts | 123° |
| 2026-05-09 00:33 | 39.81769 | -84.04623 | 815 ft | 21 kts | 49° |
| 2026-05-09 00:33 | 39.81866 | -84.04487 | 815 ft | 20 kts | 46° |
| 2026-05-09 00:33 | 39.81954 | -84.04358 | 813 ft | 11 kts | 67° |
| 2026-05-09 00:33 | 39.81921 | -84.04270 | 812 ft | 12 kts | 124° |
| 2026-05-09 00:34 | 39.81898 | -84.04188 | 815 ft | 8 kts | 65° |
| 2026-05-09 00:34 | 39.81957 | -84.04133 | 815 ft | 14 kts | 33° |
| 2026-05-09 00:34 | 39.82014 | -84.04033 | 815 ft | 14 kts | 118° |
| 2026-05-09 00:34 | 39.81986 | -84.03991 | 814 ft | 0 kts | 131° |